Terminal Aerodrome Forecast
Issued by NWS Tuscon, AZ

Home | Current Version | Previous Version | Text Only | Print | Product List | Glossary On
Versions: 1 2 3 4 5 6 7 8 9 10 11 12
000
FTUS45 KTWC 291700
TAFTUS
TAF
KTUS 291730Z 2918/3018 23004KT P6SM BKN250
     FM291900 27008KT P6SM BKN250
     FM292300 30010KT P6SM BKN250
     FM300400 22005KT P6SM BKN200
     FM300800 14006KT P6SM FEW150 BKN250=

USA.gov is the U.S. government's official web portal to all federal, state and local government web resources and services.